createdAt,value
2023-01-28T00:02:37.695Z,3.50
2023-01-28T00:06:44.734Z,3.50
2023-01-28T00:10:51.413Z,3.50
2023-01-28T00:14:58.105Z,3.40
2023-01-28T00:19:04.775Z,3.50
2023-01-28T00:23:11.473Z,3.50
2023-01-28T00:27:18.187Z,3.50
2023-01-28T00:31:27.348Z,3.60
2023-01-28T00:35:34.117Z,3.50
2023-01-28T00:39:40.773Z,3.60
2023-01-28T00:43:48.447Z,3.50
2023-01-28T00:47:55.168Z,3.50
2023-01-28T00:52:02.103Z,3.50
2023-01-28T00:56:12.435Z,3.60
2023-01-28T01:00:21.800Z,3.50
2023-01-28T01:04:35.368Z,3.40
2023-01-28T01:08:43.147Z,3.40
2023-01-28T01:12:50.417Z,3.30
2023-01-28T01:16:57.108Z,3.40
2023-01-28T01:21:07.331Z,3.40
2023-01-28T01:25:16.850Z,3.40
2023-01-28T01:29:23.728Z,3.30
2023-01-28T01:33:31.131Z,3.40
2023-01-28T01:37:38.020Z,3.40
2023-01-28T01:41:45.846Z,3.40
2023-01-28T01:46:00.573Z,3.50
2023-01-28T01:50:30.570Z,3.50
2023-01-28T01:54:38.362Z,3.50
2023-01-28T01:58:50.277Z,3.50
2023-01-28T02:02:58.945Z,3.50
2023-01-28T02:07:08.447Z,3.50
2023-01-28T02:11:16.901Z,3.50
2023-01-28T02:15:25.093Z,3.40
2023-01-28T02:19:44.275Z,3.40
2023-01-28T02:24:19.184Z,3.40
2023-01-28T02:28:40.924Z,3.40
2023-01-28T02:32:56.855Z,3.30
2023-01-28T02:37:11.567Z,3.20
2023-01-28T02:41:25.027Z,3.10
2023-01-28T02:46:13.978Z,3.00
2023-01-28T02:50:21.295Z,3.10
2023-01-28T02:54:40.368Z,3.10
2023-01-28T02:59:27.718Z,3.00
2023-01-28T03:04:04.786Z,3.00
2023-01-28T03:08:31.098Z,3.00
2023-01-28T03:13:00.788Z,3.00
2023-01-28T03:17:34.984Z,3.00
2023-01-28T03:22:03.276Z,2.90
2023-01-28T03:26:31.363Z,2.90
2023-01-28T03:31:11.874Z,3.00
2023-01-28T03:35:41.201Z,2.90
2023-01-28T03:39:48.367Z,2.90
2023-01-28T03:43:56.105Z,2.80
2023-01-28T03:48:02.798Z,2.70
2023-01-28T03:52:09.767Z,2.70
2023-01-28T03:56:18.417Z,2.70
2023-01-28T04:00:25.136Z,2.60
2023-01-28T04:04:32.657Z,2.60
2023-01-28T04:08:39.423Z,2.60
2023-01-28T04:12:47.421Z,2.60
2023-01-28T04:16:57.149Z,2.50
2023-01-28T04:21:03.992Z,2.60
2023-01-28T04:25:10.690Z,2.60
2023-01-28T04:29:17.369Z,2.60
2023-01-28T04:33:24.096Z,2.50
2023-01-28T04:37:30.793Z,2.60
2023-01-28T04:41:37.632Z,2.50
2023-01-28T04:45:44.376Z,2.50
2023-01-28T04:49:51.323Z,3.60
2023-01-28T04:53:58.091Z,2.60
2023-01-28T04:58:04.765Z,2.50
2023-01-28T05:02:11.454Z,2.40
2023-01-28T05:06:18.144Z,2.40
2023-01-28T05:10:26.982Z,2.30
2023-01-28T05:14:33.844Z,2.30
2023-01-28T05:18:40.542Z,2.30
2023-01-28T05:22:47.228Z,2.40
2023-01-28T05:26:54.110Z,2.40
2023-01-28T05:31:05.782Z,2.40
2023-01-28T05:35:12.510Z,2.40
2023-01-28T05:39:19.449Z,2.40
2023-01-28T05:43:26.202Z,2.50
2023-01-28T05:47:33.851Z,2.40
2023-01-28T05:51:41.118Z,2.40
2023-01-28T05:55:51.999Z,2.40
2023-01-28T05:59:58.727Z,2.30
2023-01-28T06:04:05.439Z,2.30
2023-01-28T06:08:12.147Z,2.30
2023-01-28T06:12:18.854Z,2.30
2023-01-28T06:16:26.444Z,2.30
2023-01-28T06:20:33.326Z,2.40
2023-01-28T06:24:39.974Z,2.40
2023-01-28T06:28:46.709Z,2.30
2023-01-28T06:32:57.431Z,2.30
2023-01-28T06:37:04.293Z,2.40
2023-01-28T06:41:10.989Z,2.30
2023-01-28T06:45:17.693Z,2.30
2023-01-28T06:49:24.433Z,2.30
2023-01-28T06:53:31.107Z,2.40
2023-01-28T06:57:39.627Z,2.40
2023-01-28T07:01:46.353Z,2.30
2023-01-28T07:05:53.181Z,2.40
2023-01-28T07:09:59.858Z,2.50
2023-01-28T07:14:06.535Z,2.50
2023-01-28T07:18:13.217Z,2.40
2023-01-28T07:22:19.890Z,2.50
2023-01-28T07:26:26.578Z,2.50
2023-01-28T07:30:33.275Z,2.50
2023-01-28T07:34:41.772Z,2.40
2023-01-28T07:38:48.487Z,2.30
2023-01-28T07:42:56.465Z,2.30
2023-01-28T07:47:03.934Z,2.40
2023-01-28T07:51:10.642Z,2.40
2023-01-28T07:55:17.637Z,2.40
2023-01-28T07:59:24.501Z,2.40
2023-01-28T08:03:31.302Z,2.50
2023-01-28T08:07:37.947Z,2.30
2023-01-28T08:11:44.647Z,2.30
2023-01-28T08:15:55.889Z,2.30
2023-01-28T08:20:02.690Z,2.30
2023-01-28T08:24:09.511Z,2.20
2023-01-28T08:28:17.404Z,2.30
2023-01-28T08:32:24.240Z,2.30
2023-01-28T08:36:30.909Z,2.40
2023-01-28T08:40:37.973Z,2.50
2023-01-28T08:44:44.641Z,2.60
2023-01-28T08:48:51.394Z,2.50
2023-01-28T08:53:01.241Z,2.50
2023-01-28T08:57:07.966Z,2.60
2023-01-28T09:01:14.694Z,2.60
2023-01-28T09:05:22.251Z,2.70
2023-01-28T09:09:30.915Z,2.80
2023-01-28T09:13:37.679Z,2.90
2023-01-28T09:17:44.552Z,2.90
2023-01-28T09:21:51.366Z,2.80
2023-01-28T09:26:01.581Z,3.00
2023-01-28T09:30:10.376Z,3.00
2023-01-28T09:34:17.171Z,3.00
2023-01-28T09:38:23.893Z,3.10
2023-01-28T09:42:44.147Z,3.10
2023-01-28T09:46:51.353Z,3.30
2023-01-28T09:50:58.447Z,3.40
2023-01-28T09:55:33.317Z,3.30
2023-01-28T09:59:39.999Z,3.50
2023-01-28T10:04:03.454Z,3.60
2023-01-28T10:08:44.141Z,3.70
2023-01-28T10:13:12.325Z,3.80
2023-01-28T10:17:40.583Z,3.90
2023-01-28T10:21:53.533Z,3.90
2023-01-28T10:26:05.011Z,4.00
2023-01-28T10:30:25.524Z,4.20
2023-01-28T10:34:32.347Z,4.00
2023-01-28T10:38:39.657Z,3.90
2023-01-28T10:42:46.408Z,3.90
2023-01-28T10:46:55.712Z,4.10
2023-01-28T10:51:06.089Z,4.20
2023-01-28T10:55:14.497Z,4.70
2023-01-28T10:59:27.978Z,5.00
2023-01-28T11:03:35.747Z,5.10
2023-01-28T11:07:42.933Z,5.20
2023-01-28T11:11:49.694Z,5.20
2023-01-28T11:16:05.407Z,5.50
2023-01-28T11:20:22.336Z,5.60
2023-01-28T11:24:32.012Z,5.50
2023-01-28T11:28:41.717Z,6.50
2023-01-28T11:33:00.421Z,5.80
2023-01-28T11:37:18.597Z,5.90
2023-01-28T11:41:28.760Z,5.80
2023-01-28T11:45:42.776Z,5.80
2023-01-28T11:50:17.694Z,5.70
2023-01-28T11:54:52.426Z,5.80
2023-01-28T11:59:25.275Z,6.00
2023-01-28T12:03:47.062Z,6.30
2023-01-28T12:08:24.797Z,6.40
2023-01-28T12:12:48.284Z,6.50
2023-01-28T12:17:14.383Z,6.50
2023-01-28T12:21:45.324Z,6.50
2023-01-28T12:26:12.220Z,6.50
2023-01-28T12:30:50.326Z,6.50
2023-01-28T12:35:11.060Z,6.70
2023-01-28T12:39:38.153Z,6.70
2023-01-28T12:44:03.862Z,6.70
2023-01-28T12:48:22.171Z,6.90
2023-01-28T12:52:40.877Z,6.50
2023-01-28T12:56:54.631Z,6.50
2023-01-28T13:01:07.291Z,6.70
2023-01-28T13:05:18.663Z,6.90
2023-01-28T13:09:27.059Z,7.10
2023-01-28T13:13:44.635Z,7.10
2023-01-28T13:18:00.975Z,7.20
2023-01-28T13:22:37.182Z,7.20
2023-01-28T13:26:55.744Z,7.20
2023-01-28T13:31:08.717Z,7.20
2023-01-28T13:35:32.064Z,7.00
2023-01-28T13:39:38.926Z,7.00
2023-01-28T13:43:45.779Z,7.00
2023-01-28T13:47:58.502Z,6.90
2023-01-28T13:52:11.669Z,6.90
2023-01-28T13:56:22.758Z,6.90
2023-01-28T14:00:41.801Z,6.80
2023-01-28T14:05:13.197Z,6.80
2023-01-28T14:09:48.147Z,6.60
2023-01-28T14:14:28.748Z,6.60
2023-01-28T14:18:44.520Z,6.70
2023-01-28T14:22:55.533Z,6.60
2023-01-28T14:27:16.348Z,6.70
2023-01-28T14:31:34.014Z,6.70
2023-01-28T14:35:48.922Z,6.60
2023-01-28T14:40:04.542Z,6.30
2023-01-28T14:44:26.765Z,6.20
2023-01-28T14:48:45.000Z,6.10
2023-01-28T14:53:19.506Z,6.00
2023-01-28T14:57:33.024Z,5.90
2023-01-28T15:01:45.999Z,5.70
2023-01-28T15:06:26.216Z,5.70
2023-01-28T15:10:37.623Z,5.50
2023-01-28T15:14:45.240Z,5.30
2023-01-28T15:18:52.993Z,5.20
2023-01-28T15:23:02.693Z,5.10
2023-01-28T15:27:24.089Z,5.00
2023-01-28T15:31:35.251Z,4.90
2023-01-28T15:35:49.317Z,4.80
2023-01-28T15:40:06.663Z,4.70
2023-01-28T15:44:19.175Z,4.60
2023-01-28T15:48:32.009Z,4.40
2023-01-28T15:52:40.955Z,4.10
2023-01-28T15:56:47.951Z,3.90
2023-01-28T16:01:09.709Z,3.70
2023-01-28T16:05:34.587Z,3.60
2023-01-28T16:09:41.350Z,3.30
2023-01-28T16:13:48.118Z,3.30
2023-01-28T16:17:54.934Z,3.40
2023-01-28T16:22:01.834Z,3.50
2023-01-28T16:26:23.683Z,3.60
2023-01-28T16:30:30.408Z,3.70
2023-01-28T16:34:37.091Z,3.80
2023-01-28T16:38:43.823Z,3.80
2023-01-28T16:42:54.723Z,4.50
2023-01-28T16:47:03.067Z,4.00
2023-01-28T16:51:19.772Z,4.00
2023-01-28T16:55:27.147Z,4.00
2023-01-28T16:59:33.858Z,4.00
2023-01-28T17:03:40.884Z,4.10
2023-01-28T17:07:54.159Z,4.10
2023-01-28T17:12:03.056Z,4.10
2023-01-28T17:16:09.817Z,4.00
2023-01-28T17:20:17.449Z,4.00
2023-01-28T17:24:24.172Z,4.00
2023-01-28T17:28:31.139Z,3.90
2023-01-28T17:32:38.849Z,3.80
2023-01-28T17:36:45.651Z,3.80
2023-01-28T17:40:52.468Z,3.80
2023-01-28T17:45:03.110Z,3.80
2023-01-28T17:49:09.840Z,3.70
2023-01-28T17:53:16.508Z,3.80
2023-01-28T17:57:23.569Z,3.80
2023-01-28T18:01:31.503Z,3.80
2023-01-28T18:05:38.206Z,3.70
2023-01-28T18:09:46.116Z,3.60
2023-01-28T18:13:52.789Z,3.60
2023-01-28T18:17:59.555Z,3.50
2023-01-28T18:22:06.234Z,3.50
2023-01-28T18:26:12.886Z,3.60
2023-01-28T18:30:19.742Z,3.50
2023-01-28T18:34:28.610Z,4.30
2023-01-28T18:38:35.579Z,3.60
2023-01-28T18:42:42.250Z,3.60
2023-01-28T18:46:50.193Z,3.60
2023-01-28T18:50:58.414Z,3.60
2023-01-28T18:55:05.475Z,3.60
2023-01-28T18:59:13.978Z,3.60
2023-01-28T19:03:20.666Z,3.60
2023-01-28T19:07:27.371Z,3.60
2023-01-28T19:11:35.173Z,3.50
2023-01-28T19:15:41.891Z,3.60
2023-01-28T19:19:48.583Z,3.60
2023-01-28T19:24:00.442Z,3.70
2023-01-28T19:28:07.954Z,3.70
2023-01-28T19:32:14.647Z,3.70
2023-01-28T19:36:21.950Z,3.60
2023-01-28T19:40:28.648Z,3.60
2023-01-28T19:44:35.797Z,3.60
2023-01-28T19:48:43.335Z,3.70
2023-01-28T19:52:50.039Z,3.70
2023-01-28T19:56:56.714Z,3.60
2023-01-28T20:01:08.712Z,3.60
2023-01-28T20:05:15.806Z,3.70
2023-01-28T20:09:22.717Z,3.70
2023-01-28T20:13:30.788Z,3.70
2023-01-28T20:17:37.529Z,3.70
2023-01-28T20:21:44.658Z,3.70
2023-01-28T20:25:54.677Z,3.70
2023-01-28T20:30:01.446Z,3.70
2023-01-28T20:34:08.573Z,3.70
2023-01-28T20:38:15.433Z,3.70
2023-01-28T20:42:22.300Z,3.60
2023-01-28T20:46:32.121Z,3.60
2023-01-28T20:50:38.979Z,3.60
2023-01-28T20:54:45.657Z,3.50
2023-01-28T20:58:59.107Z,3.50
2023-01-28T21:03:05.773Z,3.50
2023-01-28T21:07:12.914Z,3.60
2023-01-28T21:11:20.811Z,3.60
2023-01-28T21:15:27.813Z,3.50
2023-01-28T21:19:34.522Z,3.50
2023-01-28T21:23:41.777Z,3.60
2023-01-28T21:27:49.683Z,3.60
2023-01-28T21:31:56.399Z,3.60
2023-01-28T21:36:11.915Z,3.70
2023-01-28T21:40:18.869Z,3.70
2023-01-28T21:44:25.570Z,3.60
2023-01-28T21:48:32.235Z,3.60
2023-01-28T21:52:38.952Z,3.60
2023-01-28T21:56:47.593Z,3.60
2023-01-28T22:00:54.291Z,3.60
2023-01-28T22:05:00.957Z,3.40
2023-01-28T22:09:11.661Z,3.40
2023-01-28T22:13:18.338Z,3.40
2023-01-28T22:17:25.818Z,3.30
2023-01-28T22:21:33.142Z,3.50
2023-01-28T22:25:39.844Z,3.60
2023-01-28T22:29:46.565Z,3.60
2023-01-28T22:33:53.464Z,3.70
2023-01-28T22:38:00.165Z,3.70
2023-01-28T22:42:06.975Z,3.80
2023-01-28T22:46:14.506Z,3.80
2023-01-28T22:50:21.358Z,3.90
2023-01-28T22:54:28.060Z,3.90
2023-01-28T22:58:35.020Z,4.20
2023-01-28T23:02:41.729Z,3.90
2023-01-28T23:06:48.395Z,3.90
2023-01-28T23:10:57.345Z,3.90
2023-01-28T23:15:22.658Z,3.90
2023-01-28T23:19:48.235Z,3.80
2023-01-28T23:24:13.690Z,3.80
2023-01-28T23:28:20.376Z,3.90
2023-01-28T23:32:27.133Z,4.00
2023-01-28T23:36:34.082Z,3.90
2023-01-28T23:40:40.775Z,3.90
2023-01-28T23:44:48.269Z,3.90
2023-01-28T23:48:54.936Z,3.90
2023-01-28T23:53:01.626Z,4.00
2023-01-28T23:57:08.583Z,3.90
